Pagrindinis puslapis
METAR-TAF:

METAR-TAF

Oro uostai :

Cape Romanzof, Aliaska, Jungtinės Amerikos Valstijos

platuma: 61-47N, ilguma: 166-02W, Aukštis: 139 m

Dabartinis oras

Ataskaita buvo paskelbta 39 minutes, ne 04:55 UTC
Vėjas 13 kt iš Šiaurės Rytų
Temperatūra 6°C
Drėgmė 81%
Slėgis 1001 hPa
Matomumas: 16.1 km
Su prošvaistėmis ne aukštis 2500 ft

METAR: PACZ 210455Z AUTO 04013KT 10SM BKN025 06/03 A2956 RMK AO2 SLP012 T00600025

Laikas: 21:34 (05:34 UTC)


TAF: trūkstamas

Orai ataskaitas ir orų prognozės (METAR, TAF).

turimą stotys yra geltonos ir raudonos taškus žemėlapyje.

Perkelti pele per norėdami pamatyti stoties vardą.

Tada spustelėkite, norėdami matyti oro stebėjimo ir prognozės.

Norėdami pakeisti žemėlapį: spustelėkite ant žalios mygtukų su juodo kryžiaus žemyn,; žalią mygtuką su brūkšneliu, jei norite nutolinti; arba žalių rodyklių gretimoms žemėlapius.


METAR-TAF: